Time;durP1;ratioP1;P1;durP2;ratioP2;P2;SDS_P1;SDS_P2;PMS_P1;PMS_P2;Temp;Humidity;BMP_temperature;BMP_pressure;BME280_temperature;BME280_humidity;BME280_pressure;Samples;Min_cycle;Max_cycle;Signal;HPM_P1;HPM_P2
2022/11/17 00:00:17;;;;;;;6.15;2.22;;;;;;;;;;1039694;28;20030;-77
2022/11/17 00:00:48;;;;;;;10.23;2.83;;;;;;;;;;1038759;28;20511;-77
2022/11/17 00:01:20;;;;;;;10.18;2.13;;;;;;;;;;1039786;28;20155;-77
2022/11/17 00:01:50;;;;;;;13.30;3.25;;;;;;;;;;1036975;28;20025;-77
2022/11/17 00:02:21;;;;;;;7.28;2.88;;;;;;;;;;1034258;28;20026;-77
2022/11/17 00:02:51;;;;;;;5.40;2.80;;;;;;;;;;1033543;28;20112;-77
2022/11/17 00:03:22;;;;;;;9.38;2.55;;;;;;;;;;1035947;28;20517;-77
2022/11/17 00:03:52;;;;;;;14.43;2.92;;;;;;;;;;1039641;28;20465;-77
2022/11/17 00:04:25;;;;;;;2.65;1.45;;;;;;;;;;1043949;28;20527;-77
2022/11/17 00:04:56;;;;;;;9.48;2.55;;;;;;;;;;1039725;28;20555;-77
2022/11/17 00:05:26;;;;;;;6.25;2.22;;;;;;;;;;1039920;28;20108;-77
2022/11/17 00:06:01;;;;;;;6.03;2.25;;;;;;;;;;1039658;28;20135;-77
2022/11/17 00:06:31;;;;;;;5.97;2.17;;;;;;;;;;1036454;28;20508;-77
2022/11/17 00:07:02;;;;;;;5.45;3.45;;;;;;;;;;1037952;28;20021;-77
2022/11/17 00:07:33;;;;;;;3.17;1.75;;;;;;;;;;1033440;28;20034;-77
2022/11/17 00:08:03;;;;;;;5.55;2.53;;;;;;;;;;1036047;28;20108;-77
2022/11/17 00:08:34;;;;;;;5.55;2.05;;;;;;;;;;1035535;28;20026;-77
2022/11/17 00:09:04;;;;;;;3.83;1.73;;;;;;;;;;1035857;28;20470;-77
2022/11/17 00:09:35;;;;;;;6.82;2.75;;;;;;;;;;1040018;28;20486;-77
2022/11/17 00:10:06;;;;;;;7.60;2.28;;;;;;;;;;1039821;28;20497;-77
2022/11/17 00:10:36;;;;;;;6.65;1.55;;;;;;;;;;1039748;28;20139;-77
2022/11/17 00:11:07;;;;;;;20.77;3.42;;;;;;;;;;1039775;28;20029;-77
2022/11/17 00:14:56;;;;;;;14.00;2.58;;;;;;;;;;1039792;28;20489;-77
2022/11/17 00:15:27;;;;;;;3.53;1.70;;;;;;;;;;1040240;28;20048;-77
2022/11/17 00:15:57;;;;;;;5.55;2.40;;;;;;;;;;1040047;28;20036;-77
2022/11/17 00:16:28;;;;;;;9.82;2.03;;;;;;;;;;1039700;28;20028;-77
2022/11/17 00:16:59;;;;;;;4.70;2.58;;;;;;;;;;1039683;28;20139;-77
2022/11/17 00:17:29;;;;;;;6.15;2.00;;;;;;;;;;1039795;28;20013;-77
2022/11/17 00:21:17;;;;;;;7.85;3.30;;;;;;;;;;1039619;28;20025;-77
2022/11/17 00:21:48;;;;;;;6.10;3.30;;;;;;;;;;1040068;28;20029;-77
2022/11/17 00:22:19;;;;;;;10.52;3.92;;;;;;;;;;1039832;28;20030;-77
2022/11/17 00:22:49;;;;;;;6.00;3.00;;;;;;;;;;1039782;28;20116;-77
2022/11/17 00:23:20;;;;;;;10.60;3.20;;;;;;;;;;1039999;28;20030;-77
2022/11/17 00:23:50;;;;;;;4.90;2.30;;;;;;;;;;1039660;28;20025;-77
2022/11/17 00:24:22;;;;;;;6.55;2.65;;;;;;;;;;1040368;28;20083;-78
2022/11/17 00:24:53;;;;;;;6.93;2.30;;;;;;;;;;1039869;28;20358;-78
2022/11/17 00:25:23;;;;;;;8.05;3.22;;;;;;;;;;1040335;28;20021;-78
2022/11/17 00:25:54;;;;;;;6.07;2.97;;;;;;;;;;1039586;28;20029;-78
2022/11/17 00:26:26;;;;;;;6.70;2.95;;;;;;;;;;1039867;28;20018;-78
2022/11/17 00:27:02;;;;;;;6.40;3.08;;;;;;;;;;1039753;28;20029;-77
2022/11/17 00:27:33;;;;;;;6.28;3.33;;;;;;;;;;1038614;28;20112;-77
2022/11/17 00:28:04;;;;;;;5.25;2.95;;;;;;;;;;1039894;28;20503;-77
2022/11/17 00:28:34;;;;;;;5.57;2.55;;;;;;;;;;1035628;28;20490;-77
2022/11/17 00:29:05;;;;;;;6.05;3.65;;;;;;;;;;1035576;28;20503;-77
2022/11/17 00:29:35;;;;;;;9.23;2.88;;;;;;;;;;1040041;28;20014;-77
2022/11/17 00:30:06;;;;;;;5.95;2.70;;;;;;;;;;1039645;28;20112;-77
2022/11/17 00:34:06;;;;;;;4.93;2.03;;;;;;;;;;1040181;28;19917;-77
2022/11/17 00:34:37;;;;;;;8.77;3.10;;;;;;;;;;1039849;28;20032;-77
2022/11/17 00:35:08;;;;;;;6.90;2.75;;;;;;;;;;1039630;28;20025;-77
2022/11/17 00:35:38;;;;;;;4.20;2.10;;;;;;;;;;1037650;28;20401;-77
2022/11/17 00:36:09;;;;;;;6.85;3.22;;;;;;;;;;1038736;28;20055;-77
2022/11/17 00:36:44;;;;;;;9.38;3.58;;;;;;;;;;1036959;28;20036;-77
2022/11/17 00:37:15;;;;;;;7.20;2.80;;;;;;;;;;1039419;28;20588;-78
2022/11/17 00:38:35;;;;;;;19.92;7.55;;;;;;;;;;1040069;28;20033;-78
2022/11/17 00:39:06;;;;;;;25.80;11.70;;;;;;;;;;1040018;28;20116;-78
2022/11/17 00:39:37;;;;;;;30.08;12.50;;;;;;;;;;1039725;28;20033;-78
2022/11/17 00:40:07;;;;;;;18.95;9.48;;;;;;;;;;1039675;28;20054;-78
2022/11/17 00:40:38;;;;;;;27.38;11.70;;;;;;;;;;1039810;28;20032;-77
2022/11/17 00:41:09;;;;;;;34.22;17.35;;;;;;;;;;1039558;28;20489;-77
2022/11/17 00:41:39;;;;;;;32.47;16.42;;;;;;;;;;1040163;28;20029;-77
2022/11/17 00:42:10;;;;;;;38.60;18.20;;;;;;;;;;1039952;28;20111;-77
2022/11/17 00:42:40;;;;;;;39.45;18.90;;;;;;;;;;1039218;28;20027;-77
2022/11/17 00:43:11;;;;;;;32.00;16.05;;;;;;;;;;1039852;28;20028;-77
2022/11/17 00:43:42;;;;;;;41.00;19.85;;;;;;;;;;1039710;28;20017;-77
2022/11/17 00:44:12;;;;;;;35.50;18.00;;;;;;;;;;1039694;28;20041;-78
2022/11/17 00:44:43;;;;;;;38.42;18.52;;;;;;;;;;1039934;28;20076;-78
2022/11/17 00:45:13;;;;;;;35.25;18.45;;;;;;;;;;1040006;28;20022;-78
2022/11/17 00:45:44;;;;;;;44.25;21.60;;;;;;;;;;1038713;28;20029;-78
2022/11/17 00:46:14;;;;;;;35.30;18.02;;;;;;;;;;1039342;28;20049;-78
2022/11/17 00:46:45;;;;;;;38.70;19.30;;;;;;;;;;1039608;28;20063;-78
2022/11/17 00:47:15;;;;;;;40.63;18.98;;;;;;;;;;1040008;28;20051;-78
2022/11/17 00:47:46;;;;;;;37.08;17.77;;;;;;;;;;1039595;28;20061;-78
2022/11/17 00:48:17;;;;;;;43.10;18.63;;;;;;;;;;1038442;28;20018;-78
2022/11/17 00:48:47;;;;;;;45.55;18.70;;;;;;;;;;1039523;28;20026;-78
2022/11/17 00:49:24;;;;;;;49.67;20.00;;;;;;;;;;1039114;28;20021;-78
2022/11/17 00:49:54;;;;;;;48.78;18.92;;;;;;;;;;1039367;28;20017;-78
2022/11/17 00:50:25;;;;;;;47.90;18.92;;;;;;;;;;1038292;28;20029;-78
2022/11/17 00:50:56;;;;;;;49.67;18.40;;;;;;;;;;1035468;28;20036;-78
2022/11/17 00:51:26;;;;;;;45.67;18.73;;;;;;;;;;1035470;28;20163;-78
2022/11/17 00:51:57;;;;;;;34.63;14.05;;;;;;;;;;1031643;28;20542;-78
2022/11/17 00:52:27;;;;;;;27.40;11.23;;;;;;;;;;1031455;28;20587;-78
2022/11/17 00:52:58;;;;;;;28.63;10.27;;;;;;;;;;1035822;28;20091;-78
2022/11/17 00:53:28;;;;;;;23.98;9.50;;;;;;;;;;1035718;28;20018;-77
2022/11/17 00:53:59;;;;;;;20.98;10.90;;;;;;;;;;1039557;28;20821;-77
2022/11/17 00:54:29;;;;;;;16.48;8.25;;;;;;;;;;1039714;28;20026;-77
2022/11/17 00:55:00;;;;;;;15.75;6.68;;;;;;;;;;1039415;28;20087;-77
2022/11/17 00:55:30;;;;;;;15.95;6.35;;;;;;;;;;1039580;28;20124;-77
2022/11/17 00:56:01;;;;;;;15.35;7.10;;;;;;;;;;1039851;28;20030;-78
2022/11/17 00:56:32;;;;;;;26.70;10.48;;;;;;;;;;1039361;28;20032;-78
2022/11/17 00:57:03;;;;;;;21.13;9.48;;;;;;;;;;1038622;28;20088;-78
2022/11/17 00:57:33;;;;;;;16.58;7.00;;;;;;;;;;1039633;28;20539;-78
2022/11/17 00:58:04;;;;;;;22.02;8.55;;;;;;;;;;1039902;28;20038;-78
2022/11/17 00:58:35;;;;;;;20.63;8.63;;;;;;;;;;1039422;28;20037;-78
2022/11/17 00:59:05;;;;;;;21.35;9.35;;;;;;;;;;1035458;28;20053;-78
2022/11/17 00:59:36;;;;;;;26.15;10.65;;;;;;;;;;1037858;28;20032;-78
2022/11/17 01:00:07;;;;;;;25.90;9.40;;;;;;;;;;1038190;28;20124;-78
2022/11/17 01:00:38;;;;;;;23.50;9.68;;;;;;;;;;1037110;28;20064;-78
2022/11/17 01:01:09;;;;;;;17.83;8.07;;;;;;;;;;1039788;28;20061;-78
2022/11/17 01:01:40;;;;;;;17.58;6.07;;;;;;;;;;1038587;28;20028;-77
2022/11/17 01:02:11;;;;;;;19.13;7.78;;;;;;;;;;1035693;28;20021;-77
2022/11/17 01:02:42;;;;;;;20.73;6.20;;;;;;;;;;1035457;28;20018;-78
2022/11/17 01:03:12;;;;;;;17.55;6.75;;;;;;;;;;1035645;28;20032;-78
2022/11/17 01:03:43;;;;;;;14.95;5.38;;;;;;;;;;1035595;28;20109;-77
2022/11/17 01:04:14;;;;;;;15.88;5.47;;;;;;;;;;1039316;28;20147;-77
2022/11/17 01:04:44;;;;;;;11.07;4.68;;;;;;;;;;1039106;28;20103;-77
2022/11/17 01:05:15;;;;;;;14.75;5.70;;;;;;;;;;1039479;28;20033;-77
2022/11/17 01:05:45;;;;;;;9.52;5.35;;;;;;;;;;1039492;28;20031;-77
2022/11/17 01:06:17;;;;;;;15.00;4.68;;;;;;;;;;1039333;28;20025;-77
2022/11/17 01:06:48;;;;;;;14.82;5.22;;;;;;;;;;1037380;28;20016;-77
2022/11/17 01:07:20;;;;;;;13.30;5.63;;;;;;;;;;1037877;28;20489;-77
2022/11/17 01:07:51;;;;;;;9.23;3.63;;;;;;;;;;1034664;28;20014;-77
2022/11/17 01:08:22;;;;;;;18.35;4.70;;;;;;;;;;1035155;28;20454;-77
2022/11/17 01:08:52;;;;;;;12.13;4.75;;;;;;;;;;1035474;28;20020;-77
2022/11/17 01:09:23;;;;;;;18.42;5.47;;;;;;;;;;1035598;28;20033;-77
2022/11/17 01:09:54;;;;;;;19.77;5.38;;;;;;;;;;1039556;28;20025;-77
2022/11/17 01:10:24;;;;;;;11.98;5.60;;;;;;;;;;1038902;28;20481;-77
2022/11/17 01:10:55;;;;;;;15.25;4.65;;;;;;;;;;1039577;28;20025;-77
2022/11/17 01:11:26;;;;;;;11.65;4.70;;;;;;;;;;1039186;28;20027;-78
2022/11/17 01:11:57;;;;;;;16.40;4.60;;;;;;;;;;1036591;28;20105;-78
2022/11/17 01:12:27;;;;;;;13.32;5.28;;;;;;;;;;1039311;28;20473;-78
2022/11/17 01:12:58;;;;;;;15.82;4.78;;;;;;;;;;1035593;28;20021;-77
2022/11/17 01:13:28;;;;;;;14.43;4.47;;;;;;;;;;1035460;28;20072;-78
2022/11/17 01:13:59;;;;;;;13.00;3.88;;;;;;;;;;1038611;28;20519;-78
2022/11/17 01:14:31;;;;;;;10.57;3.72;;;;;;;;;;1037395;28;20030;-78
2022/11/17 01:15:02;;;;;;;10.63;4.00;;;;;;;;;;1039498;28;20055;-78
2022/11/17 01:15:32;;;;;;;9.82;3.50;;;;;;;;;;1039619;28;20024;-78
2022/11/17 01:16:04;;;;;;;10.45;3.80;;;;;;;;;;1040429;28;20021;-78
2022/11/17 01:16:35;;;;;;;10.77;4.28;;;;;;;;;;1035540;28;20033;-78
2022/11/17 01:17:06;;;;;;;14.07;4.38;;;;;;;;;;1031188;28;20033;-78
2022/11/17 01:17:36;;;;;;;11.07;4.55;;;;;;;;;;1031192;28;20045;-78
2022/11/17 01:18:07;;;;;;;10.30;4.82;;;;;;;;;;1031197;28;20042;-78
2022/11/17 01:18:38;;;;;;;20.58;5.57;;;;;;;;;;1035308;28;20536;-78
2022/11/17 01:19:10;;;;;;;8.35;3.50;;;;;;;;;;1039368;28;20033;-78
2022/11/17 01:19:41;;;;;;;6.75;3.47;;;;;;;;;;1039756;28;20064;-78
2022/11/17 01:20:11;;;;;;;5.55;2.85;;;;;;;;;;1039761;28;20112;-78
2022/11/17 01:20:42;;;;;;;9.43;3.67;;;;;;;;;;1039547;28;20021;-78
2022/11/17 01:21:23;;;;;;;13.90;4.05;;;;;;;;;;1039878;28;20026;-78
2022/11/17 01:21:53;;;;;;;5.28;2.45;;;;;;;;;;1039644;28;20025;-78
2022/11/17 01:22:24;;;;;;;8.48;3.50;;;;;;;;;;1039446;28;20017;-77
2022/11/17 01:22:55;;;;;;;13.73;3.97;;;;;;;;;;1039562;28;20166;-77
2022/11/17 01:23:25;;;;;;;6.07;2.97;;;;;;;;;;1039190;28;20021;-77
2022/11/17 01:23:56;;;;;;;8.80;3.65;;;;;;;;;;1039763;28;20331;-77
2022/11/17 01:24:27;;;;;;;23.90;4.68;;;;;;;;;;1039090;28;20025;-77
2022/11/17 01:24:57;;;;;;;8.75;3.50;;;;;;;;;;1038445;28;20883;-77
2022/11/17 01:25:28;;;;;;;10.48;3.65;;;;;;;;;;1039518;28;20528;-77
2022/11/17 01:26:02;;;;;;;5.50;2.40;;;;;;;;;;1036096;28;20030;-77
2022/11/17 01:26:34;;;;;;;9.82;3.33;;;;;;;;;;1039463;28;20568;-78
2022/11/17 01:27:05;;;;;;;9.05;3.08;;;;;;;;;;1039797;28;20503;-77
2022/11/17 01:27:35;;;;;;;6.90;3.08;;;;;;;;;;1039615;28;20021;-77
2022/11/17 01:28:06;;;;;;;9.05;3.58;;;;;;;;;;1039576;28;20033;-77
2022/11/17 01:28:37;;;;;;;6.97;3.65;;;;;;;;;;1039431;28;20179;-78
2022/11/17 01:29:09;;;;;;;13.48;4.25;;;;;;;;;;1039659;28;20025;-78
2022/11/17 01:29:40;;;;;;;7.25;3.33;;;;;;;;;;1038102;28;20037;-77
2022/11/17 01:30:11;;;;;;;5.97;3.65;;;;;;;;;;1034506;28;20014;-79
2022/11/17 01:30:41;;;;;;;6.78;2.92;;;;;;;;;;1035205;28;20088;-78
2022/11/17 01:31:13;;;;;;;8.35;3.33;;;;;;;;;;1035003;28;20496;-78
2022/11/17 01:31:48;;;;;;;7.75;3.20;;;;;;;;;;1035140;28;20060;-78
2022/11/17 01:32:18;;;;;;;7.20;2.72;;;;;;;;;;1034275;28;20493;-78
2022/11/17 01:32:49;;;;;;;7.60;2.80;;;;;;;;;;1034339;28;20006;-78
2022/11/17 01:33:19;;;;;;;6.68;3.05;;;;;;;;;;1033225;28;20121;-78
2022/11/17 01:33:50;;;;;;;9.05;3.65;;;;;;;;;;1033587;28;20033;-78
2022/11/17 01:34:21;;;;;;;9.88;4.25;;;;;;;;;;1034061;28;20028;-79
2022/11/17 01:34:51;;;;;;;7.32;3.55;;;;;;;;;;1034248;28;20033;-78
2022/11/17 01:35:22;;;;;;;7.10;3.40;;;;;;;;;;1040049;28;20580;-78
2022/11/17 01:35:53;;;;;;;7.55;3.97;;;;;;;;;;1038542;28;20095;-78
2022/11/17 01:36:28;;;;;;;8.32;3.95;;;;;;;;;;1033103;28;20036;-79
2022/11/17 01:37:47;;;;;;;5.43;2.58;;;;;;;;;;1037964;28;20025;-80
2022/11/17 01:38:18;;;;;;;10.25;5.03;;;;;;;;;;1038861;28;20014;-78
2022/11/17 01:38:49;;;;;;;19.15;4.40;;;;;;;;;;1039096;28;20601;-78
2022/11/17 01:39:19;;;;;;;10.68;4.22;;;;;;;;;;1036330;28;20051;-78
2022/11/17 01:39:50;;;;;;;11.20;4.00;;;;;;;;;;1036434;28;20037;-79
2022/11/17 01:40:21;;;;;;;13.40;4.90;;;;;;;;;;1039021;28;20021;-78
2022/11/17 01:40:51;;;;;;;14.35;4.32;;;;;;;;;;1039012;28;20037;-79
2022/11/17 01:41:24;;;;;;;11.80;4.63;;;;;;;;;;1039480;28;20028;-79
2022/11/17 01:41:54;;;;;;;7.18;3.53;;;;;;;;;;1039574;28;20026;-76
2022/11/17 01:42:25;;;;;;;9.35;4.35;;;;;;;;;;1038408;28;20025;-76
2022/11/17 01:42:56;;;;;;;11.27;4.20;;;;;;;;;;1039034;28;20033;-75
2022/11/17 01:43:38;;;;;;;8.52;3.15;;;;;;;;;;1035407;28;20037;-78
2022/11/17 01:44:32;;;;;;;12.95;5.15;;;;;;;;;;1030991;28;20113;-79
2022/11/17 01:45:22;;;;;;;14.30;4.05;;;;;;;;;;1027608;28;20019;-79
2022/11/17 01:45:59;;;;;;;8.00;4.32;;;;;;;;;;1032523;28;20022;-78
2022/11/17 01:46:37;;;;;;;9.95;3.95;;;;;;;;;;1035005;28;21408;-77
2022/11/17 01:47:19;;;;;;;10.55;4.22;;;;;;;;;;1038853;28;20037;-76
2022/11/17 01:47:50;;;;;;;10.43;4.93;;;;;;;;;;1037784;28;20026;-77
2022/11/17 01:48:21;;;;;;;11.90;4.45;;;;;;;;;;1040348;28;20578;-76
2022/11/17 01:48:53;;;;;;;13.57;5.38;;;;;;;;;;1039672;28;20030;-77
2022/11/17 01:49:27;;;;;;;16.10;5.43;;;;;;;;;;1040593;28;20025;-76
2022/11/17 01:50:04;;;;;;;9.73;4.47;;;;;;;;;;1039121;28;20017;-77
2022/11/17 01:50:44;;;;;;;10.70;4.00;;;;;;;;;;1032887;28;20021;-77
2022/11/17 01:51:15;;;;;;;10.77;4.72;;;;;;;;;;1035727;28;20029;-77
2022/11/17 01:51:48;;;;;;;11.13;3.97;;;;;;;;;;1034664;28;20109;-77
2022/11/17 01:52:19;;;;;;;6.22;2.95;;;;;;;;;;1036092;28;20791;-77
2022/11/17 01:52:51;;;;;;;4.68;2.15;;;;;;;;;;1035661;28;20028;-76
2022/11/17 01:53:22;;;;;;;6.25;2.60;;;;;;;;;;1036842;28;20549;-76
2022/11/17 01:53:52;;;;;;;8.15;3.28;;;;;;;;;;1039045;28;20119;-77
2022/11/17 01:54:24;;;;;;;8.57;4.15;;;;;;;;;;1039189;28;20429;-77
2022/11/17 01:54:56;;;;;;;7.22;3.85;;;;;;;;;;1039065;28;20120;-77
2022/11/17 01:55:30;;;;;;;8.02;3.92;;;;;;;;;;1039407;28;20398;-77
2022/11/17 01:56:04;;;;;;;9.80;2.92;;;;;;;;;;1038745;28;20029;-77
2022/11/17 01:56:38;;;;;;;6.57;3.20;;;;;;;;;;1035831;28;20022;-77
2022/11/17 01:57:11;;;;;;;7.05;2.83;;;;;;;;;;1039807;28;20439;-77
2022/11/17 01:57:49;;;;;;;6.13;2.47;;;;;;;;;;1039874;28;20017;-77
2022/11/17 01:58:30;;;;;;;7.00;3.47;;;;;;;;;;1038228;28;20017;-77
2022/11/17 01:59:04;;;;;;;3.92;2.85;;;;;;;;;;1035086;28;20096;-77
2022/11/17 01:59:43;;;;;;;7.05;3.00;;;;;;;;;;1034722;28;20429;-77
2022/11/17 02:00:13;;;;;;;3.47;1.77;;;;;;;;;;1033738;28;20478;-77
2022/11/17 02:00:44;;;;;;;7.25;2.72;;;;;;;;;;1035379;28;20032;-77
2022/11/17 02:01:15;;;;;;;4.82;1.90;;;;;;;;;;1039447;28;20028;-77
2022/11/17 02:01:55;;;;;;;6.57;2.78;;;;;;;;;;1038637;28;20029;-77
2022/11/17 02:02:27;;;;;;;8.88;3.78;;;;;;;;;;1038120;28;20021;-78
2022/11/17 02:02:58;;;;;;;7.70;2.22;;;;;;;;;;1038311;28;20034;-78
2022/11/17 02:03:31;;;;;;;3.08;1.17;;;;;;;;;;1035753;28;20493;-78
2022/11/17 02:04:02;;;;;;;6.43;2.72;;;;;;;;;;1036411;28;20036;-78
2022/11/17 02:04:34;;;;;;;4.28;2.10;;;;;;;;;;1039721;28;20026;-78
2022/11/17 02:05:05;;;;;;;6.47;2.25;;;;;;;;;;1038633;28;20056;-78
2022/11/17 02:05:41;;;;;;;6.05;2.50;;;;;;;;;;1034824;28;20062;-77
2022/11/17 02:06:15;;;;;;;6.13;3.10;;;;;;;;;;1035302;28;20032;-78
2022/11/17 02:06:45;;;;;;;6.50;2.63;;;;;;;;;;1035723;28;20030;-77
2022/11/17 02:07:18;;;;;;;4.63;2.20;;;;;;;;;;1038112;28;20026;-77
2022/11/17 02:07:51;;;;;;;5.65;2.50;;;;;;;;;;1034376;28;20032;-78
2022/11/17 02:08:23;;;;;;;5.07;1.85;;;;;;;;;;1032629;28;20053;-78
2022/11/17 02:08:54;;;;;;;7.05;2.70;;;;;;;;;;1032785;28;20018;-78
2022/11/17 02:09:25;;;;;;;5.10;2.72;;;;;;;;;;1036165;28;20100;-78
2022/11/17 02:09:56;;;;;;;4.22;2.33;;;;;;;;;;1037947;28;20119;-78
2022/11/17 02:10:29;;;;;;;7.50;2.78;;;;;;;;;;1038424;28;20029;-77
2022/11/17 02:11:01;;;;;;;6.78;2.63;;;;;;;;;;1040590;28;20017;-78
2022/11/17 02:11:34;;;;;;;7.90;3.13;;;;;;;;;;1040004;28;20049;-78
2022/11/17 02:12:07;;;;;;;9.02;3.38;;;;;;;;;;1040098;28;20401;-78
2022/11/17 02:12:38;;;;;;;11.18;4.20;;;;;;;;;;1038829;28;20170;-78
2022/11/17 02:13:08;;;;;;;10.55;3.15;;;;;;;;;;1039769;28;20021;-78
2022/11/17 02:13:39;;;;;;;7.78;3.40;;;;;;;;;;1041035;28;20116;-78
2022/11/17 02:14:10;;;;;;;8.85;3.40;;;;;;;;;;1040170;28;20501;-78
2022/11/17 02:14:41;;;;;;;8.52;4.50;;;;;;;;;;1039055;28;20085;-79
2022/11/17 02:15:11;;;;;;;9.07;2.53;;;;;;;;;;1038723;28;20059;-79
2022/11/17 02:15:42;;;;;;;9.25;3.28;;;;;;;;;;1038936;28;20040;-79
2022/11/17 02:16:13;;;;;;;6.15;3.10;;;;;;;;;;1039356;28;20026;-79
2022/11/17 02:16:44;;;;;;;7.43;3.08;;;;;;;;;;1037334;28;20060;-77
2022/11/17 02:17:15;;;;;;;10.35;4.07;;;;;;;;;;1031339;28;20034;-78
2022/11/17 02:17:46;;;;;;;8.57;4.03;;;;;;;;;;1033237;28;20386;-78
2022/11/17 02:18:16;;;;;;;9.35;4.50;;;;;;;;;;1031275;28;20026;-78
2022/11/17 02:18:48;;;;;;;7.95;3.15;;;;;;;;;;1033512;28;20498;-78
2022/11/17 02:19:20;;;;;;;5.40;2.38;;;;;;;;;;1039175;28;20032;-78
2022/11/17 02:19:58;;;;;;;10.35;3.00;;;;;;;;;;1039298;28;20033;-79
2022/11/17 02:20:50;;;;;;;9.27;3.47;;;;;;;;;;1037076;28;20385;-79
2022/11/17 02:21:39;;;;;;;14.65;4.93;;;;;;;;;;1039852;28;20022;-79
2022/11/17 02:22:28;;;;;;;10.95;3.30;;;;;;;;;;1039503;28;20164;-79
2022/11/17 02:23:02;;;;;;;8.98;4.43;;;;;;;;;;1040036;28;20053;-79
2022/11/17 02:23:50;;;;;;;8.68;3.53;;;;;;;;;;1038020;28;20037;-79
2022/11/17 02:24:33;;;;;;;11.35;3.15;;;;;;;;;;1037842;28;20035;-79
2022/11/17 02:25:04;;;;;;;10.30;4.10;;;;;;;;;;1040183;28;20025;-79
2022/11/17 02:25:53;;;;;;;9.13;3.05;;;;;;;;;;1038135;28;20049;-79
2022/11/17 02:26:35;;;;;;;7.60;2.13;;;;;;;;;;1038671;28;20032;-79
2022/11/17 02:27:24;;;;;;;11.35;3.42;;;;;;;;;;1035820;28;20052;-80
2022/11/17 02:28:13;;;;;;;8.38;4.38;;;;;;;;;;1037008;28;20026;-79
2022/11/17 02:29:16;;;;;;;5.05;3.83;;;;;;;;;;1039297;28;20033;-78
2022/11/17 02:29:55;;;;;;;8.88;3.70;;;;;;;;;;1033240;28;20525;-79
2022/11/17 02:30:30;;;;;;;8.68;4.15;;;;;;;;;;1030791;28;20030;-79
2022/11/17 02:31:12;;;;;;;9.07;3.63;;;;;;;;;;1036175;28;20033;-79
2022/11/17 02:31:57;;;;;;;8.05;3.17;;;;;;;;;;1033869;28;20480;-79
2022/11/17 02:32:38;;;;;;;13.48;3.92;;;;;;;;;;1036657;28;20499;-79
2022/11/17 02:33:08;;;;;;;6.78;3.08;;;;;;;;;;1034296;28;20441;-79
2022/11/17 02:33:57;;;;;;;10.20;4.00;;;;;;;;;;1033045;28;20029;-79
2022/11/17 02:34:48;;;;;;;17.33;4.45;;;;;;;;;;1034156;28;20499;-78
2022/11/17 02:35:39;;;;;;;9.60;3.95;;;;;;;;;;1026146;28;20027;-78
2022/11/17 02:36:14;;;;;;;9.52;4.32;;;;;;;;;;1039765;28;20033;-78
2022/11/17 02:36:54;;;;;;;10.75;4.45;;;;;;;;;;1040686;28;20101;-78
2022/11/17 02:37:32;;;;;;;7.28;3.88;;;;;;;;;;1033043;28;20022;-77
2022/11/17 02:38:12;;;;;;;19.70;9.13;;;;;;;;;;1030628;28;20041;-77
2022/11/17 02:38:58;;;;;;;22.35;11.13;;;;;;;;;;1034808;28;20104;-78
2022/11/17 02:39:28;;;;;;;23.17;9.52;;;;;;;;;;1034949;28;20040;-77
2022/11/17 02:40:15;;;;;;;39.50;15.57;;;;;;;;;;1036742;28;20467;-78
2022/11/17 02:40:54;;;;;;;32.78;12.95;;;;;;;;;;1035058;28;20083;-78
2022/11/17 02:41:24;;;;;;;34.15;16.58;;;;;;;;;;1040863;28;20022;-78
2022/11/17 02:42:15;;;;;;;46.28;15.60;;;;;;;;;;1039437;28;20018;-78
2022/11/17 02:44:35;;;;;;;30.90;15.90;;;;;;;;;;1037459;28;20143;-78
2022/11/17 02:45:07;;;;;;;36.28;15.63;;;;;;;;;;1040237;28;20048;-80
2022/11/17 02:45:46;;;;;;;28.92;12.68;;;;;;;;;;1040011;28;20433;-80
2022/11/17 02:46:18;;;;;;;27.40;14.45;;;;;;;;;;1037709;28;20432;-79
2022/11/17 02:46:52;;;;;;;27.27;12.85;;;;;;;;;;1038948;28;20032;-79
2022/11/17 02:47:26;;;;;;;32.50;14.95;;;;;;;;;;1039268;28;20021;-80
2022/11/17 02:47:58;;;;;;;36.55;15.60;;;;;;;;;;1036947;28;20074;-80
2022/11/17 02:48:32;;;;;;;36.50;12.52;;;;;;;;;;1038121;28;20108;-80
2022/11/17 02:49:05;;;;;;;20.45;10.07;;;;;;;;;;1035037;28;20021;-78
2022/11/17 02:49:37;;;;;;;25.23;9.52;;;;;;;;;;1036869;28;20029;-80
2022/11/17 02:50:09;;;;;;;29.88;12.40;;;;;;;;;;1036392;28;20043;-79
2022/11/17 02:50:40;;;;;;;22.35;9.20;;;;;;;;;;1039180;28;20032;-79
2022/11/17 02:51:13;;;;;;;25.67;9.27;;;;;;;;;;1038013;28;20087;-80
2022/11/17 02:51:45;;;;;;;25.38;9.68;;;;;;;;;;1038490;28;20804;-80
2022/11/17 02:52:16;;;;;;;25.92;8.60;;;;;;;;;;1038494;28;20041;-79
2022/11/17 02:52:47;;;;;;;23.77;7.22;;;;;;;;;;1037527;28;20448;-79
2022/11/17 02:53:17;;;;;;;18.08;5.57;;;;;;;;;;1038301;28;20035;-80
2022/11/17 02:53:50;;;;;;;19.65;6.55;;;;;;;;;;1037919;28;20067;-80
2022/11/17 02:54:22;;;;;;;24.40;6.32;;;;;;;;;;1038109;28;20025;-79
2022/11/17 02:54:57;;;;;;;12.73;5.30;;;;;;;;;;1038206;28;20509;-79
2022/11/17 02:55:32;;;;;;;10.68;5.05;;;;;;;;;;1037166;28;20069;-78
2022/11/17 02:56:02;;;;;;;9.65;5.43;;;;;;;;;;1041452;28;20103;-79
2022/11/17 02:56:33;;;;;;;31.38;5.32;;;;;;;;;;1038643;28;20033;-80
2022/11/17 02:57:03;;;;;;;13.52;5.00;;;;;;;;;;1038319;28;20102;-80
2022/11/17 02:57:35;;;;;;;12.68;5.70;;;;;;;;;;1039626;28;20029;-79
2022/11/17 02:58:10;;;;;;;11.77;5.88;;;;;;;;;;1039183;28;20037;-79
2022/11/17 02:58:41;;;;;;;14.10;4.25;;;;;;;;;;1040787;28;20022;-79
2022/11/17 02:59:13;;;;;;;11.15;4.70;;;;;;;;;;1038051;28;20029;-79
2022/11/17 02:59:46;;;;;;;18.20;4.70;;;;;;;;;;1040089;28;20116;-80
2022/11/17 03:00:17;;;;;;;14.25;5.50;;;;;;;;;;1040459;28;20033;-79
2022/11/17 03:00:54;;;;;;;12.23;4.30;;;;;;;;;;1035862;28;20040;-81
2022/11/17 03:01:44;;;;;;;15.30;5.13;;;;;;;;;;1039526;28;20021;-80
2022/11/17 03:02:14;;;;;;;13.02;5.43;;;;;;;;;;1039202;28;20116;-79
2022/11/17 03:02:59;;;;;;;12.20;5.82;;;;;;;;;;1035953;28;20121;-79
2022/11/17 03:03:42;;;;;;;18.75;6.82;;;;;;;;;;1037075;28;20039;-79
2022/11/17 03:04:28;;;;;;;16.98;5.70;;;;;;;;;;1034757;28;20025;-77
2022/11/17 03:04:58;;;;;;;24.25;6.00;;;;;;;;;;1039493;28;20022;-78
2022/11/17 03:05:29;;;;;;;22.15;6.88;;;;;;;;;;1033429;28;20120;-78
2022/11/17 03:06:12;;;;;;;14.73;6.68;;;;;;;;;;1037562;28;20097;-78
2022/11/17 03:06:50;;;;;;;14.02;5.05;;;;;;;;;;1038797;28;20180;-78
2022/11/17 03:07:27;;;;;;;14.40;4.85;;;;;;;;;;1034863;28;20010;-78
2022/11/17 03:08:03;;;;;;;19.70;6.35;;;;;;;;;;1038183;28;20031;-78
2022/11/17 03:08:43;;;;;;;24.05;7.68;;;;;;;;;;1036158;28;20022;-78
2022/11/17 03:09:24;;;;;;;15.60;5.55;;;;;;;;;;1039120;28;20026;-78
2022/11/17 03:10:13;;;;;;;30.20;6.88;;;;;;;;;;1039587;28;20137;-79
2022/11/17 03:10:50;;;;;;;23.15;7.60;;;;;;;;;;1040402;28;20020;-79
2022/11/17 03:11:24;;;;;;;19.88;6.65;;;;;;;;;;1040613;28;20026;-79
2022/11/17 03:11:57;;;;;;;12.55;4.75;;;;;;;;;;1040762;28;20072;-78
2022/11/17 03:12:28;;;;;;;14.15;4.82;;;;;;;;;;1039932;28;20030;-79
2022/11/17 03:12:58;;;;;;;13.13;6.47;;;;;;;;;;1040047;28;20025;-80
2022/11/17 03:13:48;;;;;;;10.23;5.22;;;;;;;;;;1039242;28;20063;-78
2022/11/17 03:14:24;;;;;;;17.45;5.60;;;;;;;;;;1040837;28;20029;-78
2022/11/17 03:15:13;;;;;;;9.95;4.97;;;;;;;;;;1041756;28;20128;-78
2022/11/17 03:15:47;;;;;;;11.35;5.25;;;;;;;;;;1041803;28;20112;-79
2022/11/17 03:16:21;;;;;;;17.35;6.15;;;;;;;;;;1039871;28;20110;-78
2022/11/17 03:17:03;;;;;;;12.40;6.00;;;;;;;;;;1041224;28;20021;-78
2022/11/17 03:17:43;;;;;;;15.00;5.47;;;;;;;;;;1034946;28;20082;-78
2022/11/17 03:18:19;;;;;;;17.83;5.97;;;;;;;;;;1033911;28;20123;-78
2022/11/17 03:19:01;;;;;;;15.68;6.28;;;;;;;;;;1035406;28;20148;-78
2022/11/17 03:19:35;;;;;;;14.75;5.30;;;;;;;;;;1036165;28;20032;-78
2022/11/17 03:20:15;;;;;;;22.20;5.70;;;;;;;;;;1038623;28;20480;-79
2022/11/17 03:20:48;;;;;;;15.05;5.10;;;;;;;;;;1037888;28;20025;-79
2022/11/17 03:21:27;;;;;;;18.60;6.03;;;;;;;;;;1039737;28;20156;-78
2022/11/17 03:22:15;;;;;;;14.20;6.60;;;;;;;;;;1039956;28;20120;-78
2022/11/17 03:22:52;;;;;;;21.60;7.13;;;;;;;;;;1040365;28;20109;-78
2022/11/17 03:23:27;;;;;;;14.10;5.78;;;;;;;;;;1034833;28;20045;-79
2022/11/17 03:24:04;;;;;;;12.63;5.20;;;;;;;;;;1038581;28;20022;-79
2022/11/17 03:24:43;;;;;;;14.20;5.57;;;;;;;;;;1031196;28;20026;-79
2022/11/17 03:25:16;;;;;;;22.80;7.53;;;;;;;;;;1033116;28;20026;-79
2022/11/17 03:25:50;;;;;;;21.08;7.35;;;;;;;;;;1034877;28;20166;-80
2022/11/17 03:26:28;;;;;;;23.30;6.07;;;;;;;;;;1033425;28;20027;-80
2022/11/17 03:27:06;;;;;;;17.95;6.97;;;;;;;;;;1033783;28;20057;-78
2022/11/17 03:27:41;;;;;;;12.77;5.03;;;;;;;;;;1035614;28;20029;-79
2022/11/17 03:28:14;;;;;;;17.58;6.00;;;;;;;;;;1036184;28;20465;-78
2022/11/17 03:28:45;;;;;;;11.00;5.43;;;;;;;;;;1039000;28;21101;-78
2022/11/17 03:29:18;;;;;;;10.40;4.15;;;;;;;;;;1039883;28;20033;-78
2022/11/17 03:29:50;;;;;;;11.10;4.75;;;;;;;;;;1039834;28;20067;-78
2022/11/17 03:30:23;;;;;;;8.98;3.75;;;;;;;;;;1039671;28;20041;-79
2022/11/17 03:30:55;;;;;;;9.52;3.90;;;;;;;;;;1035782;28;20484;-78
2022/11/17 03:31:26;;;;;;;12.82;4.32;;;;;;;;;;1040170;28;20070;-80
2022/11/17 03:31:59;;;;;;;9.65;5.13;;;;;;;;;;1038139;28;20112;-78
2022/11/17 03:32:32;;;;;;;10.45;3.92;;;;;;;;;;1039035;28;20028;-79